sensor_id;sensor_type;location;lat;lon;timestamp;P1;durP1;ratioP1;P2;durP2;ratioP2
934;SDS011;454;53.254;10.400;2023-06-04T04:02:39;1.23;;;1.23;;
934;SDS011;454;53.254;10.400;2023-06-04T04:05:06;2.05;;;1.75;;
934;SDS011;454;53.254;10.400;2023-06-04T04:07:34;1.38;;;1.38;;
934;SDS011;454;53.254;10.400;2023-06-04T04:10:00;2.70;;;2.60;;
934;SDS011;454;53.254;10.400;2023-06-04T04:12:27;1.80;;;1.75;;
934;SDS011;454;53.254;10.400;2023-06-04T04:14:54;4.15;;;1.58;;
934;SDS011;454;53.254;10.400;2023-06-04T04:17:21;1.40;;;1.40;;
934;SDS011;454;53.254;10.400;2023-06-04T04:19:49;2.33;;;2.13;;
934;SDS011;454;53.254;10.400;2023-06-04T04:22:15;1.98;;;1.88;;
934;SDS011;454;53.254;10.400;2023-06-04T04:24:43;2.00;;;1.88;;
934;SDS011;454;53.254;10.400;2023-06-04T04:27:10;1.70;;;1.63;;
934;SDS011;454;53.254;10.400;2023-06-04T04:29:38;1.47;;;1.47;;
934;SDS011;454;53.254;10.400;2023-06-04T04:32:08;2.97;;;2.77;;
934;SDS011;454;53.254;10.400;2023-06-04T04:34:36;1.90;;;1.90;;
934;SDS011;454;53.254;10.400;2023-06-04T04:37:05;1.37;;;1.33;;
934;SDS011;454;53.254;10.400;2023-06-04T04:39:33;3.00;;;2.30;;
934;SDS011;454;53.254;10.400;2023-06-04T04:42:01;1.30;;;1.30;;
934;SDS011;454;53.254;10.400;2023-06-04T04:44:27;1.60;;;1.60;;
934;SDS011;454;53.254;10.400;2023-06-04T04:46:54;2.83;;;1.10;;
934;SDS011;454;53.254;10.400;2023-06-04T04:49:21;1.23;;;1.23;;
934;SDS011;454;53.254;10.400;2023-06-04T04:51:48;2.30;;;1.60;;
934;SDS011;454;53.254;10.400;2023-06-04T04:54:16;1.10;;;1.10;;
934;SDS011;454;53.254;10.400;2023-06-04T04:56:43;1.20;;;1.20;;
934;SDS011;454;53.254;10.400;2023-06-04T04:59:09;0.90;;;0.90;;
934;SDS011;454;53.254;10.400;2023-06-04T05:01:36;1.20;;;1.20;;
934;SDS011;454;53.254;10.400;2023-06-04T05:04:03;1.00;;;1.00;;
934;SDS011;454;53.254;10.400;2023-06-04T05:06:29;0.93;;;0.93;;
934;SDS011;454;53.254;10.400;2023-06-04T05:08:56;1.07;;;1.00;;
934;SDS011;454;53.254;10.400;2023-06-04T05:11:24;1.00;;;1.00;;
934;SDS011;454;53.254;10.400;2023-06-04T05:13:51;0.70;;;0.70;;
934;SDS011;454;53.254;10.400;2023-06-04T05:16:17;1.17;;;1.17;;
934;SDS011;454;53.254;10.400;2023-06-04T05:18:45;0.80;;;0.80;;
934;SDS011;454;53.254;10.400;2023-06-04T05:21:12;0.53;;;0.53;;
934;SDS011;454;53.254;10.400;2023-06-04T05:23:39;0.97;;;0.97;;
934;SDS011;454;53.254;10.400;2023-06-04T05:26:05;0.60;;;0.60;;
934;SDS011;454;53.254;10.400;2023-06-04T05:28:34;0.73;;;0.73;;
934;SDS011;454;53.254;10.400;2023-06-04T05:31:00;0.90;;;0.60;;
934;SDS011;454;53.254;10.400;2023-06-04T05:33:27;0.60;;;0.60;;
934;SDS011;454;53.254;10.400;2023-06-04T05:35:56;0.67;;;0.67;;
934;SDS011;454;53.254;10.400;2023-06-04T05:38:23;0.90;;;0.90;;
934;SDS011;454;53.254;10.400;2023-06-04T05:40:50;0.73;;;0.73;;
934;SDS011;454;53.254;10.400;2023-06-04T05:43:18;0.67;;;0.67;;
934;SDS011;454;53.254;10.400;2023-06-04T05:45:46;2.50;;;0.50;;
934;SDS011;454;53.254;10.400;2023-06-04T05:48:12;0.80;;;0.80;;
934;SDS011;454;53.254;10.400;2023-06-04T05:50:39;0.53;;;0.53;;
934;SDS011;454;53.254;10.400;2023-06-04T05:53:06;0.43;;;0.43;;
934;SDS011;454;53.254;10.400;2023-06-04T05:55:32;0.40;;;0.40;;
934;SDS011;454;53.254;10.400;2023-06-04T05:58:00;0.57;;;0.57;;
934;SDS011;454;53.254;10.400;2023-06-04T06:00:27;0.63;;;0.63;;
934;SDS011;454;53.254;10.400;2023-06-04T06:02:57;0.77;;;0.77;;
934;SDS011;454;53.254;10.400;2023-06-04T06:05:23;0.50;;;0.50;;
934;SDS011;454;53.254;10.400;2023-06-04T06:07:50;1.13;;;1.03;;
934;SDS011;454;53.254;10.400;2023-06-04T06:10:17;0.30;;;0.30;;
934;SDS011;454;53.254;10.400;2023-06-04T06:12:44;0.60;;;0.60;;
934;SDS011;454;53.254;10.400;2023-06-04T06:15:11;0.70;;;0.70;;
934;SDS011;454;53.254;10.400;2023-06-04T06:17:37;0.47;;;0.47;;
934;SDS011;454;53.254;10.400;2023-06-04T06:20:06;0.40;;;0.40;;
934;SDS011;454;53.254;10.400;2023-06-04T06:22:33;0.90;;;0.90;;
934;SDS011;454;53.254;10.400;2023-06-04T06:32:03;0.50;;;0.50;;
934;SDS011;454;53.254;10.400;2023-06-04T06:54:32;0.40;;;0.40;;
934;SDS011;454;53.254;10.400;2023-06-04T06:56:59;0.60;;;0.60;;
934;SDS011;454;53.254;10.400;2023-06-04T06:59:25;0.67;;;0.67;;
934;SDS011;454;53.254;10.400;2023-06-04T07:01:53;0.70;;;0.70;;
934;SDS011;454;53.254;10.400;2023-06-04T07:04:19;0.40;;;0.40;;
934;SDS011;454;53.254;10.400;2023-06-04T07:06:47;0.50;;;0.50;;
934;SDS011;454;53.254;10.400;2023-06-04T07:09:14;0.60;;;0.60;;
934;SDS011;454;53.254;10.400;2023-06-04T07:11:42;0.40;;;0.40;;
934;SDS011;454;53.254;10.400;2023-06-04T07:14:09;0.43;;;0.43;;
934;SDS011;454;53.254;10.400;2023-06-04T07:16:40;0.40;;;0.40;;
934;SDS011;454;53.254;10.400;2023-06-04T07:19:07;0.50;;;0.50;;
934;SDS011;454;53.254;10.400;2023-06-04T07:21:33;0.40;;;0.40;;
934;SDS011;454;53.254;10.400;2023-06-04T07:24:00;0.30;;;0.30;;
934;SDS011;454;53.254;10.400;2023-06-04T07:26:27;0.40;;;0.40;;
934;SDS011;454;53.254;10.400;2023-06-04T07:28:57;0.30;;;0.30;;
934;SDS011;454;53.254;10.400;2023-06-04T07:31:23;0.73;;;0.73;;
934;SDS011;454;53.254;10.400;2023-06-04T07:33:50;0.30;;;0.30;;
934;SDS011;454;53.254;10.400;2023-06-04T07:36:17;0.43;;;0.43;;
934;SDS011;454;53.254;10.400;2023-06-04T07:38:43;0.40;;;0.40;;
934;SDS011;454;53.254;10.400;2023-06-04T07:41:10;0.50;;;0.50;;
934;SDS011;454;53.254;10.400;2023-06-04T07:43:37;0.50;;;0.50;;
934;SDS011;454;53.254;10.400;2023-06-04T07:46:05;0.43;;;0.43;;
934;SDS011;454;53.254;10.400;2023-06-04T07:48:32;0.50;;;0.50;;
934;SDS011;454;53.254;10.400;2023-06-04T07:50:59;0.40;;;0.40;;
934;SDS011;454;53.254;10.400;2023-06-04T07:53:27;0.40;;;0.40;;
934;SDS011;454;53.254;10.400;2023-06-04T07:55:54;0.70;;;0.60;;
934;SDS011;454;53.254;10.400;2023-06-04T07:58:21;0.40;;;0.40;;
934;SDS011;454;53.254;10.400;2023-06-04T08:00:48;0.80;;;0.60;;
934;SDS011;454;53.254;10.400;2023-06-04T08:03:16;0.20;;;0.20;;
934;SDS011;454;53.254;10.400;2023-06-04T08:05:45;0.60;;;0.60;;
934;SDS011;454;53.254;10.400;2023-06-04T08:08:12;0.40;;;0.40;;
934;SDS011;454;53.254;10.400;2023-06-04T08:10:40;0.43;;;0.43;;
934;SDS011;454;53.254;10.400;2023-06-04T08:13:08;0.70;;;0.70;;
934;SDS011;454;53.254;10.400;2023-06-04T08:15:35;0.47;;;0.47;;
934;SDS011;454;53.254;10.400;2023-06-04T08:18:01;0.47;;;0.47;;
934;SDS011;454;53.254;10.400;2023-06-04T08:20:29;0.67;;;0.40;;
934;SDS011;454;53.254;10.400;2023-06-04T08:22:56;0.40;;;0.40;;
934;SDS011;454;53.254;10.400;2023-06-04T08:25:23;0.70;;;0.70;;
934;SDS011;454;53.254;10.400;2023-06-04T08:27:50;0.33;;;0.33;;
934;SDS011;454;53.254;10.400;2023-06-04T08:30:16;0.40;;;0.40;;
934;SDS011;454;53.254;10.400;2023-06-04T08:32:43;0.80;;;0.80;;
934;SDS011;454;53.254;10.400;2023-06-04T08:35:10;0.50;;;0.50;;
934;SDS011;454;53.254;10.400;2023-06-04T08:37:40;0.30;;;0.30;;
934;SDS011;454;53.254;10.400;2023-06-04T08:40:12;0.30;;;0.30;;
934;SDS011;454;53.254;10.400;2023-06-04T08:42:40;0.47;;;0.47;;
934;SDS011;454;53.254;10.400;2023-06-04T08:45:09;0.30;;;0.30;;
934;SDS011;454;53.254;10.400;2023-06-04T08:47:37;0.47;;;0.47;;
934;SDS011;454;53.254;10.400;2023-06-04T08:50:10;0.60;;;0.60;;
934;SDS011;454;53.254;10.400;2023-06-04T08:52:39;0.40;;;0.40;;
934;SDS011;454;53.254;10.400;2023-06-04T08:55:06;0.53;;;0.53;;
934;SDS011;454;53.254;10.400;2023-06-04T08:57:37;0.40;;;0.40;;
934;SDS011;454;53.254;10.400;2023-06-04T09:00:05;0.50;;;0.50;;
934;SDS011;454;53.254;10.400;2023-06-04T09:02:33;0.50;;;0.50;;
934;SDS011;454;53.254;10.400;2023-06-04T09:05:01;0.57;;;0.57;;
934;SDS011;454;53.254;10.400;2023-06-04T09:07:30;0.30;;;0.30;;
934;SDS011;454;53.254;10.400;2023-06-04T09:10:01;0.50;;;0.50;;
934;SDS011;454;53.254;10.400;2023-06-04T09:12:28;0.37;;;0.37;;
934;SDS011;454;53.254;10.400;2023-06-04T09:14:56;0.50;;;0.50;;
934;SDS011;454;53.254;10.400;2023-06-04T09:17:23;0.50;;;0.50;;
934;SDS011;454;53.254;10.400;2023-06-04T09:19:50;0.30;;;0.30;;
934;SDS011;454;53.254;10.400;2023-06-04T09:22:17;0.40;;;0.40;;
934;SDS011;454;53.254;10.400;2023-06-04T09:24:45;0.47;;;0.47;;
934;SDS011;454;53.254;10.400;2023-06-04T09:27:16;1.53;;;0.97;;
934;SDS011;454;53.254;10.400;2023-06-04T09:29:50;0.70;;;0.70;;
934;SDS011;454;53.254;10.400;2023-06-04T09:32:21;0.53;;;0.53;;
934;SDS011;454;53.254;10.400;2023-06-04T09:34:48;0.70;;;0.57;;
934;SDS011;454;53.254;10.400;2023-06-04T09:37:15;1.70;;;0.50;;
934;SDS011;454;53.254;10.400;2023-06-04T09:39:43;3.80;;;0.67;;
934;SDS011;454;53.254;10.400;2023-06-04T09:42:09;0.40;;;0.40;;
934;SDS011;454;53.254;10.400;2023-06-04T09:44:43;0.57;;;0.57;;
934;SDS011;454;53.254;10.400;2023-06-04T09:47:10;0.47;;;0.47;;
934;SDS011;454;53.254;10.400;2023-06-04T09:49:40;0.40;;;0.40;;
934;SDS011;454;53.254;10.400;2023-06-04T09:52:07;0.30;;;0.30;;
934;SDS011;454;53.254;10.400;2023-06-04T09:54:35;2.17;;;0.87;;
934;SDS011;454;53.254;10.400;2023-06-04T09:57:02;0.40;;;0.40;;
934;SDS011;454;53.254;10.400;2023-06-04T09:59:30;0.50;;;0.50;;
934;SDS011;454;53.254;10.400;2023-06-04T10:02:03;0.60;;;0.60;;
934;SDS011;454;53.254;10.400;2023-06-04T10:04:32;4.80;;;0.90;;
934;SDS011;454;53.254;10.400;2023-06-04T10:07:02;0.53;;;0.53;;
934;SDS011;454;53.254;10.400;2023-06-04T10:09:30;0.40;;;0.40;;
934;SDS011;454;53.254;10.400;2023-06-04T10:11:58;0.23;;;0.23;;
934;SDS011;454;53.254;10.400;2023-06-04T10:14:27;0.40;;;0.40;;
934;SDS011;454;53.254;10.400;2023-06-04T10:17:02;0.50;;;0.50;;
934;SDS011;454;53.254;10.400;2023-06-04T10:19:30;0.67;;;0.67;;
934;SDS011;454;53.254;10.400;2023-06-04T10:21:57;0.37;;;0.37;;
934;SDS011;454;53.254;10.400;2023-06-04T10:24:24;0.83;;;0.83;;
934;SDS011;454;53.254;10.400;2023-06-04T10:26:51;0.70;;;0.70;;
934;SDS011;454;53.254;10.400;2023-06-04T10:29:21;0.37;;;0.37;;
934;SDS011;454;53.254;10.400;2023-06-04T10:31:52;0.73;;;0.73;;
934;SDS011;454;53.254;10.400;2023-06-04T10:34:21;0.60;;;0.60;;
934;SDS011;454;53.254;10.400;2023-06-04T10:36:48;0.40;;;0.40;;
934;SDS011;454;53.254;10.400;2023-06-04T10:39:25;0.43;;;0.43;;
934;SDS011;454;53.254;10.400;2023-06-04T10:41:59;0.37;;;0.37;;
934;SDS011;454;53.254;10.400;2023-06-04T10:44:26;0.50;;;0.50;;
934;SDS011;454;53.254;10.400;2023-06-04T10:46:53;0.43;;;0.43;;
934;SDS011;454;53.254;10.400;2023-06-04T10:49:27;0.93;;;0.93;;
934;SDS011;454;53.254;10.400;2023-06-04T10:51:54;0.57;;;0.57;;
934;SDS011;454;53.254;10.400;2023-06-04T10:54:22;0.40;;;0.40;;
934;SDS011;454;53.254;10.400;2023-06-04T10:56:51;1.80;;;0.50;;
934;SDS011;454;53.254;10.400;2023-06-04T10:59:19;0.63;;;0.63;;
934;SDS011;454;53.254;10.400;2023-06-04T11:01:45;0.37;;;0.37;;
934;SDS011;454;53.254;10.400;2023-06-04T11:04:22;0.40;;;0.40;;
934;SDS011;454;53.254;10.400;2023-06-04T11:07:01;0.50;;;0.50;;
934;SDS011;454;53.254;10.400;2023-06-04T11:09:28;0.53;;;0.53;;
934;SDS011;454;53.254;10.400;2023-06-04T11:11:56;0.50;;;0.50;;
934;SDS011;454;53.254;10.400;2023-06-04T11:14:23;0.40;;;0.40;;
934;SDS011;454;53.254;10.400;2023-06-04T11:16:50;0.30;;;0.30;;
934;SDS011;454;53.254;10.400;2023-06-04T11:19:17;0.50;;;0.50;;
934;SDS011;454;53.254;10.400;2023-06-04T11:21:43;1.10;;;0.37;;
934;SDS011;454;53.254;10.400;2023-06-04T11:24:15;0.43;;;0.43;;
934;SDS011;454;53.254;10.400;2023-06-04T11:26:43;0.73;;;0.73;;
934;SDS011;454;53.254;10.400;2023-06-04T11:29:11;1.33;;;0.60;;
934;SDS011;454;53.254;10.400;2023-06-04T11:31:41;0.30;;;0.30;;
934;SDS011;454;53.254;10.400;2023-06-04T11:34:08;0.93;;;0.70;;
934;SDS011;454;53.254;10.400;2023-06-04T11:36:37;0.40;;;0.40;;
934;SDS011;454;53.254;10.400;2023-06-04T11:39:03;0.40;;;0.40;;
934;SDS011;454;53.254;10.400;2023-06-04T11:41:33;0.33;;;0.33;;
934;SDS011;454;53.254;10.400;2023-06-04T11:44:01;0.33;;;0.33;;
934;SDS011;454;53.254;10.400;2023-06-04T11:46:29;0.60;;;0.60;;
934;SDS011;454;53.254;10.400;2023-06-04T11:48:56;0.40;;;0.40;;
934;SDS011;454;53.254;10.400;2023-06-04T11:51:23;0.30;;;0.30;;
934;SDS011;454;53.254;10.400;2023-06-04T11:53:50;0.67;;;0.67;;
934;SDS011;454;53.254;10.400;2023-06-04T11:56:21;0.70;;;0.67;;
934;SDS011;454;53.254;10.400;2023-06-04T11:58:52;0.53;;;0.53;;
934;SDS011;454;53.254;10.400;2023-06-04T12:01:20;0.57;;;0.57;;
934;SDS011;454;53.254;10.400;2023-06-04T12:03:47;0.30;;;0.30;;
934;SDS011;454;53.254;10.400;2023-06-04T12:06:15;0.33;;;0.33;;
934;SDS011;454;53.254;10.400;2023-06-04T12:08:46;0.40;;;0.40;;
934;SDS011;454;53.254;10.400;2023-06-04T12:11:24;0.60;;;0.60;;
934;SDS011;454;53.254;10.400;2023-06-04T12:13:54;0.43;;;0.43;;
934;SDS011;454;53.254;10.400;2023-06-04T12:16:22;0.53;;;0.53;;
934;SDS011;454;53.254;10.400;2023-06-04T12:18:48;0.50;;;0.50;;
934;SDS011;454;53.254;10.400;2023-06-04T12:21:16;0.40;;;0.40;;
934;SDS011;454;53.254;10.400;2023-06-04T12:23:44;0.50;;;0.50;;
934;SDS011;454;53.254;10.400;2023-06-04T12:26:19;0.90;;;0.90;;
934;SDS011;454;53.254;10.400;2023-06-04T12:28:59;0.67;;;0.67;;
934;SDS011;454;53.254;10.400;2023-06-04T12:31:26;0.70;;;0.70;;
934;SDS011;454;53.254;10.400;2023-06-04T12:33:56;0.50;;;0.50;;
934;SDS011;454;53.254;10.400;2023-06-04T12:36:26;0.30;;;0.30;;
934;SDS011;454;53.254;10.400;2023-06-04T12:38:57;0.50;;;0.50;;
934;SDS011;454;53.254;10.400;2023-06-04T12:41:25;2.23;;;0.67;;
934;SDS011;454;53.254;10.400;2023-06-04T12:43:51;0.60;;;0.60;;
934;SDS011;454;53.254;10.400;2023-06-04T12:46:20;0.50;;;0.50;;
934;SDS011;454;53.254;10.400;2023-06-04T12:48:47;0.30;;;0.30;;
934;SDS011;454;53.254;10.400;2023-06-04T12:51:15;0.60;;;0.60;;
934;SDS011;454;53.254;10.400;2023-06-04T12:53:42;0.57;;;0.47;;
934;SDS011;454;53.254;10.400;2023-06-04T12:56:08;1.60;;;0.50;;
934;SDS011;454;53.254;10.400;2023-06-04T12:58:35;0.70;;;0.70;;
934;SDS011;454;53.254;10.400;2023-06-04T13:01:02;0.47;;;0.47;;
934;SDS011;454;53.254;10.400;2023-06-04T13:03:31;0.90;;;0.90;;
934;SDS011;454;53.254;10.400;2023-06-04T13:05:58;2.10;;;0.93;;
934;SDS011;454;53.254;10.400;2023-06-04T13:08:24;0.47;;;0.47;;
934;SDS011;454;53.254;10.400;2023-06-04T13:10:51;0.60;;;0.60;;
934;SDS011;454;53.254;10.400;2023-06-04T13:13:20;0.70;;;0.70;;
934;SDS011;454;53.254;10.400;2023-06-04T13:15:47;4.67;;;0.60;;
934;SDS011;454;53.254;10.400;2023-06-04T13:18:13;1.07;;;0.70;;
934;SDS011;454;53.254;10.400;2023-06-04T13:20:41;0.50;;;0.50;;
934;SDS011;454;53.254;10.400;2023-06-04T13:23:08;0.47;;;0.47;;
934;SDS011;454;53.254;10.400;2023-06-04T13:25:37;1.67;;;0.60;;
934;SDS011;454;53.254;10.400;2023-06-04T13:28:03;0.60;;;0.60;;
934;SDS011;454;53.254;10.400;2023-06-04T13:30:30;0.60;;;0.60;;
934;SDS011;454;53.254;10.400;2023-06-04T13:32:57;0.50;;;0.50;;
934;SDS011;454;53.254;10.400;2023-06-04T13:35:24;0.60;;;0.60;;
934;SDS011;454;53.254;10.400;2023-06-04T13:37:52;1.30;;;0.93;;
934;SDS011;454;53.254;10.400;2023-06-04T13:40:18;0.30;;;0.30;;
934;SDS011;454;53.254;10.400;2023-06-04T13:42:45;0.70;;;0.70;;
934;SDS011;454;53.254;10.400;2023-06-04T13:45:12;0.50;;;0.50;;
934;SDS011;454;53.254;10.400;2023-06-04T13:47:39;0.60;;;0.60;;
934;SDS011;454;53.254;10.400;2023-06-04T13:50:06;1.10;;;1.10;;
934;SDS011;454;53.254;10.400;2023-06-04T13:52:33;1.07;;;0.70;;
934;SDS011;454;53.254;10.400;2023-06-04T13:55:01;1.37;;;0.60;;
934;SDS011;454;53.254;10.400;2023-06-04T13:57:27;0.60;;;0.60;;
934;SDS011;454;53.254;10.400;2023-06-04T13:59:54;0.93;;;0.93;;
934;SDS011;454;53.254;10.400;2023-06-04T14:02:21;0.60;;;0.60;;
934;SDS011;454;53.254;10.400;2023-06-04T14:04:49;2.10;;;0.80;;
934;SDS011;454;53.254;10.400;2023-06-04T14:07:15;0.57;;;0.57;;
934;SDS011;454;53.254;10.400;2023-06-04T14:09:42;1.30;;;0.60;;
934;SDS011;454;53.254;10.400;2023-06-04T14:12:11;1.70;;;0.60;;
934;SDS011;454;53.254;10.400;2023-06-04T14:14:38;0.20;;;0.20;;
934;SDS011;454;53.254;10.400;2023-06-04T14:17:05;0.70;;;0.60;;
934;SDS011;454;53.254;10.400;2023-06-04T14:19:32;0.50;;;0.50;;
934;SDS011;454;53.254;10.400;2023-06-04T14:21:59;0.90;;;0.90;;
934;SDS011;454;53.254;10.400;2023-06-04T14:24:26;0.50;;;0.50;;
934;SDS011;454;53.254;10.400;2023-06-04T14:26:52;0.73;;;0.73;;
934;SDS011;454;53.254;10.400;2023-06-04T14:29:20;0.80;;;0.80;;
934;SDS011;454;53.254;10.400;2023-06-04T14:31:47;0.70;;;0.70;;
934;SDS011;454;53.254;10.400;2023-06-04T14:34:14;1.33;;;0.93;;
934;SDS011;454;53.254;10.400;2023-06-04T14:36:41;0.83;;;0.83;;
934;SDS011;454;53.254;10.400;2023-06-04T14:39:07;0.67;;;0.67;;
934;SDS011;454;53.254;10.400;2023-06-04T14:41:34;0.77;;;0.77;;
934;SDS011;454;53.254;10.400;2023-06-04T14:44:01;0.70;;;0.70;;
934;SDS011;454;53.254;10.400;2023-06-04T14:46:29;0.60;;;0.60;;
934;SDS011;454;53.254;10.400;2023-06-04T14:48:55;0.80;;;0.80;;
934;SDS011;454;53.254;10.400;2023-06-04T14:51:22;0.50;;;0.50;;
934;SDS011;454;53.254;10.400;2023-06-04T14:53:49;1.20;;;1.20;;
934;SDS011;454;53.254;10.400;2023-06-04T14:56:16;0.63;;;0.63;;
934;SDS011;454;53.254;10.400;2023-06-04T14:58:43;0.73;;;0.70;;
934;SDS011;454;53.254;10.400;2023-06-04T15:01:10;0.73;;;0.73;;
934;SDS011;454;53.254;10.400;2023-06-04T15:03:39;0.70;;;0.60;;
934;SDS011;454;53.254;10.400;2023-06-04T15:06:06;0.80;;;0.80;;
934;SDS011;454;53.254;10.400;2023-06-04T15:08:33;0.50;;;0.50;;
934;SDS011;454;53.254;10.400;2023-06-04T15:10:59;0.50;;;0.50;;
934;SDS011;454;53.254;10.400;2023-06-04T15:13:26;2.40;;;1.53;;
934;SDS011;454;53.254;10.400;2023-06-04T15:15:53;0.70;;;0.70;;
934;SDS011;454;53.254;10.400;2023-06-04T15:18:20;2.83;;;0.90;;
934;SDS011;454;53.254;10.400;2023-06-04T15:20:48;0.97;;;0.97;;
934;SDS011;454;53.254;10.400;2023-06-04T15:23:15;1.00;;;1.00;;
934;SDS011;454;53.254;10.400;2023-06-04T15:25:42;0.80;;;0.80;;
934;SDS011;454;53.254;10.400;2023-06-04T15:28:09;1.13;;;1.13;;
934;SDS011;454;53.254;10.400;2023-06-04T15:30:36;1.17;;;0.67;;
934;SDS011;454;53.254;10.400;2023-06-04T15:33:02;0.53;;;0.53;;
934;SDS011;454;53.254;10.400;2023-06-04T15:35:29;0.77;;;0.77;;
934;SDS011;454;53.254;10.400;2023-06-04T15:37:57;2.50;;;0.93;;
934;SDS011;454;53.254;10.400;2023-06-04T15:40:24;0.60;;;0.60;;
934;SDS011;454;53.254;10.400;2023-06-04T15:42:51;0.60;;;0.60;;
934;SDS011;454;53.254;10.400;2023-06-04T15:45:17;1.23;;;0.87;;
934;SDS011;454;53.254;10.400;2023-06-04T15:47:46;0.87;;;0.87;;
934;SDS011;454;53.254;10.400;2023-06-04T15:50:12;0.90;;;0.90;;
934;SDS011;454;53.254;10.400;2023-06-04T15:52:39;0.60;;;0.60;;
934;SDS011;454;53.254;10.400;2023-06-04T15:55:07;1.03;;;1.03;;
934;SDS011;454;53.254;10.400;2023-06-04T15:57:34;0.80;;;0.80;;
934;SDS011;454;53.254;10.400;2023-06-04T16:00:00;0.80;;;0.80;;
934;SDS011;454;53.254;10.400;2023-06-04T16:02:28;0.60;;;0.60;;
934;SDS011;454;53.254;10.400;2023-06-04T16:04:55;2.80;;;0.70;;
934;SDS011;454;53.254;10.400;2023-06-04T16:07:21;0.70;;;0.70;;
934;SDS011;454;53.254;10.400;2023-06-04T16:09:48;0.90;;;0.90;;
934;SDS011;454;53.254;10.400;2023-06-04T16:12:16;1.70;;;1.00;;
934;SDS011;454;53.254;10.400;2023-06-04T16:14:43;0.97;;;0.97;;
934;SDS011;454;53.254;10.400;2023-06-04T16:17:09;1.00;;;1.00;;
934;SDS011;454;53.254;10.400;2023-06-04T16:19:41;0.67;;;0.67;;
934;SDS011;454;53.254;10.400;2023-06-04T16:22:13;0.60;;;0.60;;
934;SDS011;454;53.254;10.400;2023-06-04T16:24:40;0.50;;;0.50;;
934;SDS011;454;53.254;10.400;2023-06-04T16:27:06;0.63;;;0.63;;
934;SDS011;454;53.254;10.400;2023-06-04T16:29:34;1.07;;;1.07;;
934;SDS011;454;53.254;10.400;2023-06-04T16:32:01;0.57;;;0.57;;
934;SDS011;454;53.254;10.400;2023-06-04T16:34:28;1.00;;;1.00;;
934;SDS011;454;53.254;10.400;2023-06-04T16:36:55;0.90;;;0.80;;
934;SDS011;454;53.254;10.400;2023-06-04T16:39:22;0.63;;;0.63;;
934;SDS011;454;53.254;10.400;2023-06-04T16:41:49;0.53;;;0.53;;
934;SDS011;454;53.254;10.400;2023-06-04T16:44:16;0.73;;;0.73;;
934;SDS011;454;53.254;10.400;2023-06-04T16:46:44;0.97;;;0.97;;
934;SDS011;454;53.254;10.400;2023-06-04T16:49:10;0.80;;;0.80;;
934;SDS011;454;53.254;10.400;2023-06-04T16:51:37;0.70;;;0.70;;
934;SDS011;454;53.254;10.400;2023-06-04T16:54:05;0.73;;;0.73;;
934;SDS011;454;53.254;10.400;2023-06-04T16:56:32;0.90;;;0.90;;
934;SDS011;454;53.254;10.400;2023-06-04T16:58:59;1.30;;;1.30;;
934;SDS011;454;53.254;10.400;2023-06-04T17:01:26;2.30;;;0.73;;
934;SDS011;454;53.254;10.400;2023-06-04T17:03:53;0.63;;;0.63;;
934;SDS011;454;53.254;10.400;2023-06-04T17:06:20;1.17;;;0.70;;
934;SDS011;454;53.254;10.400;2023-06-04T17:08:47;1.20;;;1.10;;
934;SDS011;454;53.254;10.400;2023-06-04T17:11:14;1.13;;;1.13;;
934;SDS011;454;53.254;10.400;2023-06-04T17:13:40;0.60;;;0.60;;
934;SDS011;454;53.254;10.400;2023-06-04T17:16:07;0.70;;;0.70;;
934;SDS011;454;53.254;10.400;2023-06-04T17:18:35;0.97;;;0.47;;
934;SDS011;454;53.254;10.400;2023-06-04T17:21:05;1.27;;;1.13;;
934;SDS011;454;53.254;10.400;2023-06-04T17:23:32;1.13;;;1.13;;
934;SDS011;454;53.254;10.400;2023-06-04T17:25:58;0.77;;;0.77;;
934;SDS011;454;53.254;10.400;2023-06-04T17:28:25;0.50;;;0.50;;
934;SDS011;454;53.254;10.400;2023-06-04T17:30:52;0.50;;;0.50;;
934;SDS011;454;53.254;10.400;2023-06-04T17:33:18;0.57;;;0.57;;
934;SDS011;454;53.254;10.400;2023-06-04T17:35:45;0.77;;;0.77;;
934;SDS011;454;53.254;10.400;2023-06-04T17:38:13;0.87;;;0.70;;
934;SDS011;454;53.254;10.400;2023-06-04T17:40:39;0.70;;;0.70;;
934;SDS011;454;53.254;10.400;2023-06-04T17:43:06;0.60;;;0.60;;
934;SDS011;454;53.254;10.400;2023-06-04T17:45:33;0.40;;;0.40;;
934;SDS011;454;53.254;10.400;2023-06-04T17:48:00;0.77;;;0.77;;
934;SDS011;454;53.254;10.400;2023-06-04T17:50:26;0.90;;;0.90;;
934;SDS011;454;53.254;10.400;2023-06-04T17:52:53;0.70;;;0.70;;
934;SDS011;454;53.254;10.400;2023-06-04T17:55:21;0.90;;;0.90;;
934;SDS011;454;53.254;10.400;2023-06-04T17:57:48;0.40;;;0.40;;
934;SDS011;454;53.254;10.400;2023-06-04T18:00:15;0.50;;;0.50;;
934;SDS011;454;53.254;10.400;2023-06-04T18:02:42;0.70;;;0.70;;
934;SDS011;454;53.254;10.400;2023-06-04T18:05:09;0.70;;;0.70;;
934;SDS011;454;53.254;10.400;2023-06-04T18:07:35;0.53;;;0.53;;
934;SDS011;454;53.254;10.400;2023-06-04T18:10:02;0.50;;;0.50;;
934;SDS011;454;53.254;10.400;2023-06-04T18:12:33;1.10;;;1.07;;
934;SDS011;454;53.254;10.400;2023-06-04T18:15:00;0.97;;;0.70;;
934;SDS011;454;53.254;10.400;2023-06-04T18:17:27;1.07;;;0.80;;
934;SDS011;454;53.254;10.400;2023-06-04T18:19:53;1.83;;;1.67;;
934;SDS011;454;53.254;10.400;2023-06-04T18:22:20;0.70;;;0.70;;
934;SDS011;454;53.254;10.400;2023-06-04T18:24:47;0.93;;;0.90;;
934;SDS011;454;53.254;10.400;2023-06-04T18:27:13;0.90;;;0.90;;
934;SDS011;454;53.254;10.400;2023-06-04T18:29:41;4.00;;;0.93;;
934;SDS011;454;53.254;10.400;2023-06-04T18:32:09;0.80;;;0.80;;
934;SDS011;454;53.254;10.400;2023-06-04T18:34:36;0.73;;;0.73;;
934;SDS011;454;53.254;10.400;2023-06-04T18:37:03;0.80;;;0.80;;
934;SDS011;454;53.254;10.400;2023-06-04T18:39:30;0.60;;;0.60;;
934;SDS011;454;53.254;10.400;2023-06-04T18:41:56;0.77;;;0.77;;
934;SDS011;454;53.254;10.400;2023-06-04T18:44:24;0.73;;;0.73;;
934;SDS011;454;53.254;10.400;2023-06-04T18:46:53;1.60;;;0.70;;
934;SDS011;454;53.254;10.400;2023-06-04T18:49:20;0.90;;;0.90;;
934;SDS011;454;53.254;10.400;2023-06-04T18:51:48;0.50;;;0.50;;
934;SDS011;454;53.254;10.400;2023-06-04T18:54:16;1.50;;;1.50;;
934;SDS011;454;53.254;10.400;2023-06-04T18:56:43;1.13;;;1.03;;
934;SDS011;454;53.254;10.400;2023-06-04T18:59:11;1.13;;;0.80;;
934;SDS011;454;53.254;10.400;2023-06-04T19:01:38;0.93;;;0.47;;
934;SDS011;454;53.254;10.400;2023-06-04T19:04:06;1.43;;;1.33;;
934;SDS011;454;53.254;10.400;2023-06-04T19:06:33;0.77;;;0.77;;
934;SDS011;454;53.254;10.400;2023-06-04T19:09:00;0.50;;;0.50;;
934;SDS011;454;53.254;10.400;2023-06-04T19:11:27;0.80;;;0.80;;
934;SDS011;454;53.254;10.400;2023-06-04T19:13:54;0.70;;;0.70;;
934;SDS011;454;53.254;10.400;2023-06-04T19:16:21;0.70;;;0.70;;
934;SDS011;454;53.254;10.400;2023-06-04T19:18:48;0.50;;;0.50;;
934;SDS011;454;53.254;10.400;2023-06-04T19:21:16;1.03;;;0.80;;
934;SDS011;454;53.254;10.400;2023-06-04T19:23:43;3.40;;;1.23;;
934;SDS011;454;53.254;10.400;2023-06-04T19:26:10;0.90;;;0.90;;
934;SDS011;454;53.254;10.400;2023-06-04T19:28:37;0.70;;;0.70;;
934;SDS011;454;53.254;10.400;2023-06-04T19:31:03;1.27;;;1.27;;
934;SDS011;454;53.254;10.400;2023-06-04T19:33:30;0.60;;;0.60;;
934;SDS011;454;53.254;10.400;2023-06-04T19:35:58;1.40;;;1.30;;
934;SDS011;454;53.254;10.400;2023-06-04T19:38:27;2.63;;;1.13;;
934;SDS011;454;53.254;10.400;2023-06-04T19:40:53;0.40;;;0.33;;
934;SDS011;454;53.254;10.400;2023-06-04T19:43:20;1.60;;;0.80;;
934;SDS011;454;53.254;10.400;2023-06-04T19:45:47;3.60;;;0.97;;
934;SDS011;454;53.254;10.400;2023-06-04T19:48:15;1.43;;;1.43;;
934;SDS011;454;53.254;10.400;2023-06-04T19:50:42;1.50;;;0.90;;
934;SDS011;454;53.254;10.400;2023-06-04T19:53:09;1.53;;;1.50;;
934;SDS011;454;53.254;10.400;2023-06-04T19:55:37;1.00;;;0.93;;
934;SDS011;454;53.254;10.400;2023-06-04T19:58:04;1.40;;;0.73;;
934;SDS011;454;53.254;10.400;2023-06-04T20:00:30;0.70;;;0.70;;